createdAt,value
2022-12-17T00:00:28.083Z,28.27
2022-12-17T00:03:16.784Z,29.13
2022-12-17T00:05:59.349Z,28.02
2022-12-17T00:08:45.325Z,30.52
2022-12-17T00:11:31.616Z,29.13
2022-12-17T00:14:17.420Z,29.17
2022-12-17T00:17:04.568Z,30.48
2022-12-17T00:19:50.902Z,29.15
2022-12-17T00:22:38.048Z,30.88
2022-12-17T00:25:24.964Z,27.58
2022-12-17T00:28:10.668Z,27.05
2022-12-17T00:30:56.576Z,27.30
2022-12-17T00:33:44.601Z,29.42
2022-12-17T00:36:30.554Z,28.42
2022-12-17T00:39:16.258Z,28.10
2022-12-17T00:42:02.366Z,28.42
2022-12-17T00:44:48.224Z,31.20
2022-12-17T00:47:34.338Z,28.10
2022-12-17T00:50:21.450Z,25.52
2022-12-17T00:53:07.617Z,28.38
2022-12-17T00:55:53.832Z,26.08
2022-12-17T00:58:42.905Z,25.98
2022-12-17T01:01:29.150Z,27.75
2022-12-17T01:04:15.547Z,30.95
2022-12-17T01:07:03.022Z,28.17
2022-12-17T01:09:54.362Z,27.88
2022-12-17T01:12:40.001Z,27.95
2022-12-17T01:15:27.167Z,25.63
2022-12-17T01:18:13.035Z,27.40
2022-12-17T01:20:59.046Z,27.67
2022-12-17T01:23:46.388Z,29.67
2022-12-17T01:26:32.502Z,26.60
2022-12-17T01:29:18.320Z,26.73
2022-12-17T01:32:04.511Z,27.73
2022-12-17T01:34:50.484Z,30.75
2022-12-17T01:37:36.457Z,26.90
2022-12-17T01:40:25.339Z,29.52
2022-12-17T01:43:11.832Z,25.10
2022-12-17T01:46:11.369Z,25.65
2022-12-17T01:49:00.596Z,26.90
2022-12-17T01:51:46.689Z,29.25
2022-12-17T01:54:32.650Z,27.90
2022-12-17T01:57:20.079Z,27.63
2022-12-17T02:00:08.759Z,25.42
2022-12-17T02:02:56.266Z,26.70
2022-12-17T02:05:47.088Z,25.38
2022-12-17T02:08:38.479Z,26.73
2022-12-17T02:11:29.875Z,27.08
2022-12-17T02:14:20.471Z,29.23
2022-12-17T02:17:09.723Z,24.95
2022-12-17T02:20:02.933Z,25.95
2022-12-17T02:22:56.477Z,27.00
2022-12-17T02:25:47.552Z,25.88
2022-12-17T02:28:35.119Z,25.38
2022-12-17T02:31:21.485Z,27.25
2022-12-17T02:34:07.275Z,29.00
2022-12-17T02:36:56.077Z,24.27
2022-12-17T02:39:42.279Z,26.65
2022-12-17T02:42:27.397Z,23.65
2022-12-17T02:45:15.077Z,27.10
2022-12-17T02:48:01.333Z,25.15
2022-12-17T02:50:46.661Z,23.38
2022-12-17T02:53:32.650Z,26.63
2022-12-17T02:56:19.038Z,22.35
2022-12-17T02:59:04.964Z,27.30
2022-12-17T03:01:52.526Z,24.27
2022-12-17T03:04:38.616Z,26.70
2022-12-17T03:07:24.767Z,24.88
2022-12-17T03:10:10.656Z,27.92
2022-12-17T03:12:56.516Z,24.30
2022-12-17T03:15:42.545Z,26.98
2022-12-17T03:18:30.248Z,23.02
2022-12-17T03:21:16.143Z,24.08
2022-12-17T03:24:02.402Z,26.05
2022-12-17T03:26:48.502Z,24.65
2022-12-17T03:29:34.511Z,24.83
2022-12-17T03:32:22.855Z,25.60
2022-12-17T03:35:10.383Z,24.17
2022-12-17T03:37:56.202Z,22.95
2022-12-17T03:40:42.375Z,25.00
2022-12-17T03:43:28.522Z,23.48
2022-12-17T03:46:14.068Z,22.95
2022-12-17T03:49:02.373Z,25.63
2022-12-17T03:51:49.751Z,23.23
2022-12-17T03:54:35.482Z,24.05
2022-12-17T03:57:21.723Z,23.23
2022-12-17T04:00:19.333Z,25.50
2022-12-17T04:03:05.916Z,26.25
2022-12-17T04:05:52.227Z,28.15
2022-12-17T04:08:39.418Z,23.55
2022-12-17T04:11:25.764Z,24.52
2022-12-17T04:14:12.093Z,23.73
2022-12-17T04:16:58.233Z,26.55
2022-12-17T04:19:43.974Z,22.10
2022-12-17T04:22:30.071Z,24.60
2022-12-17T04:25:18.191Z,25.30
2022-12-17T04:28:04.108Z,22.27
2022-12-17T04:30:50.367Z,23.27
2022-12-17T04:33:36.409Z,21.98
2022-12-17T04:36:23.200Z,23.00
2022-12-17T04:39:14.531Z,24.77
2022-12-17T04:42:01.850Z,25.73
2022-12-17T04:44:47.392Z,22.80
2022-12-17T04:47:33.583Z,21.23
2022-12-17T04:50:19.282Z,25.60
2022-12-17T04:53:05.560Z,22.98
2022-12-17T04:55:51.731Z,22.60
2022-12-17T04:58:35.631Z,23.52
2022-12-17T05:01:21.912Z,24.63
2022-12-17T05:04:19.626Z,22.23
2022-12-17T05:07:05.675Z,21.58
2022-12-17T05:09:51.530Z,23.70
2022-12-17T05:12:37.755Z,21.85
2022-12-17T05:15:25.247Z,21.65
2022-12-17T05:18:11.128Z,22.45
2022-12-17T05:20:57.192Z,20.17
2022-12-17T05:23:43.050Z,22.90
2022-12-17T05:26:35.662Z,22.65
2022-12-17T05:29:21.482Z,22.75
2022-12-17T05:32:09.223Z,21.05
2022-12-17T05:34:55.392Z,22.08
2022-12-17T05:37:43.221Z,26.88
2022-12-17T05:40:30.119Z,21.67
2022-12-17T05:43:16.799Z,22.85
2022-12-17T05:46:03.410Z,22.20
2022-12-17T05:48:51.400Z,23.98
2022-12-17T05:51:39.092Z,21.02
2022-12-17T05:54:25.307Z,26.17
2022-12-17T05:57:11.334Z,23.13
2022-12-17T05:59:57.211Z,22.23
2022-12-17T06:02:43.934Z,25.27
2022-12-17T06:05:32.013Z,22.30
2022-12-17T06:08:25.132Z,23.27
2022-12-17T06:11:10.404Z,22.67
2022-12-17T06:13:56.420Z,22.42
2022-12-17T06:16:42.504Z,23.05
2022-12-17T06:19:36.845Z,22.92
2022-12-17T06:22:24.321Z,20.33
2022-12-17T06:25:10.132Z,22.17
2022-12-17T06:27:56.024Z,23.80
2022-12-17T06:30:42.146Z,21.83
2022-12-17T06:33:29.369Z,20.52
2022-12-17T06:36:21.937Z,23.23
2022-12-17T06:39:10.239Z,22.70
2022-12-17T06:42:00.582Z,21.25
2022-12-17T06:44:50.280Z,22.95
2022-12-17T06:47:36.442Z,24.08
2022-12-17T06:50:23.362Z,21.60
2022-12-17T06:53:18.676Z,22.55
2022-12-17T06:56:05.978Z,25.27
2022-12-17T06:58:51.800Z,22.70
2022-12-17T07:01:38.190Z,21.05
2022-12-17T07:04:24.557Z,22.95
2022-12-17T07:07:10.659Z,24.63
2022-12-17T07:09:56.230Z,23.42
2022-12-17T07:12:44.706Z,25.80
2022-12-17T07:15:36.088Z,24.98
2022-12-17T07:18:23.244Z,25.75
2022-12-17T07:21:11.799Z,23.83
2022-12-17T07:23:57.589Z,23.70
2022-12-17T07:26:43.582Z,22.85
2022-12-17T07:29:30.872Z,27.63
2022-12-17T07:32:16.961Z,22.67
2022-12-17T07:35:02.611Z,22.83
2022-12-17T07:37:48.392Z,25.23
2022-12-17T07:40:34.901Z,23.55
2022-12-17T07:43:32.482Z,23.98
2022-12-17T07:46:19.659Z,22.23
2022-12-17T07:49:05.582Z,23.48
2022-12-17T07:51:51.669Z,21.45
2022-12-17T07:54:37.404Z,29.15
2022-12-17T07:57:23.647Z,23.52
2022-12-17T08:00:09.490Z,22.83
2022-12-17T08:02:57.004Z,25.75
2022-12-17T08:05:42.990Z,32.45
2022-12-17T08:08:29.248Z,20.90
2022-12-17T08:11:15.383Z,24.35
2022-12-17T08:14:01.465Z,24.52
2022-12-17T08:16:47.717Z,25.40
2022-12-17T08:19:37.331Z,24.35
2022-12-17T08:22:23.119Z,23.70
2022-12-17T08:25:08.829Z,24.73
2022-12-17T08:27:54.430Z,25.23
2022-12-17T08:30:40.923Z,24.55
2022-12-17T08:33:27.007Z,25.77
2022-12-17T08:36:15.386Z,26.90
2022-12-17T08:39:01.157Z,25.08
2022-12-17T08:41:52.647Z,24.83
2022-12-17T08:44:39.936Z,24.63
2022-12-17T08:47:26.187Z,25.30
2022-12-17T08:50:12.215Z,25.58
2022-12-17T08:52:59.600Z,26.75
2022-12-17T08:55:45.684Z,25.45
2022-12-17T08:58:31.546Z,29.33
2022-12-17T09:01:17.424Z,27.92
2022-12-17T09:04:04.698Z,29.05
2022-12-17T09:06:50.584Z,28.30
2022-12-17T09:09:37.865Z,27.38
2022-12-17T09:12:24.469Z,25.95
2022-12-17T09:15:10.247Z,28.10
2022-12-17T09:17:56.114Z,31.30
2022-12-17T09:20:42.216Z,24.75
2022-12-17T09:23:27.861Z,28.55
2022-12-17T09:26:15.722Z,25.50
2022-12-17T09:29:00.802Z,25.27
2022-12-17T09:31:46.831Z,29.25
2022-12-17T09:34:32.809Z,26.15
2022-12-17T09:37:18.879Z,29.27
2022-12-17T09:40:04.726Z,26.92
2022-12-17T09:42:59.815Z,27.58
2022-12-17T09:45:50.217Z,28.88
2022-12-17T09:48:41.454Z,27.80
2022-12-17T09:51:39.124Z,28.17
2022-12-17T09:54:37.306Z,26.98
2022-12-17T09:57:23.569Z,30.02
2022-12-17T10:00:11.003Z,30.70
2022-12-17T10:02:56.885Z,27.50
2022-12-17T10:05:45.452Z,30.67
2022-12-17T10:08:34.167Z,37.00
2022-12-17T10:11:34.568Z,29.58
2022-12-17T10:14:22.077Z,30.83
2022-12-17T10:17:12.048Z,29.92
2022-12-17T10:19:59.990Z,28.48
2022-12-17T10:23:00.651Z,34.15
2022-12-17T10:25:46.536Z,32.03
2022-12-17T10:28:34.183Z,30.90
2022-12-17T10:31:20.719Z,27.45
2022-12-17T10:34:08.390Z,34.97
2022-12-17T10:36:54.475Z,29.77
2022-12-17T10:39:42.601Z,30.58
2022-12-17T10:42:41.725Z,32.47
2022-12-17T10:45:40.299Z,35.53
2022-12-17T10:48:37.491Z,28.83
2022-12-17T10:51:25.120Z,30.58
2022-12-17T10:54:11.341Z,30.75
2022-12-17T10:56:57.368Z,29.95
2022-12-17T10:59:50.523Z,30.55
2022-12-17T11:02:39.250Z,29.35
2022-12-17T11:05:31.980Z,32.17
2022-12-17T11:08:19.607Z,32.13
2022-12-17T11:11:05.758Z,31.70
2022-12-17T11:13:52.931Z,32.13
2022-12-17T11:16:41.222Z,30.30
2022-12-17T11:19:54.222Z,29.90
2022-12-17T11:22:44.238Z,31.15
2022-12-17T11:25:47.967Z,30.27
2022-12-17T11:28:37.960Z,27.60
2022-12-17T11:31:45.352Z,29.20
2022-12-17T11:34:36.407Z,32.63
2022-12-17T11:37:29.499Z,33.63
2022-12-17T11:40:19.338Z,32.53
2022-12-17T11:43:09.873Z,31.40
2022-12-17T11:46:10.078Z,31.73
2022-12-17T11:48:58.370Z,32.13
2022-12-17T11:51:47.838Z,32.13
2022-12-17T11:54:38.827Z,33.22
2022-12-17T11:57:30.388Z,30.55
2022-12-17T12:00:20.954Z,28.85
2022-12-17T12:03:12.809Z,30.65
2022-12-17T12:06:05.822Z,31.23
2022-12-17T12:08:53.968Z,35.25
2022-12-17T12:11:45.904Z,30.70
2022-12-17T12:14:42.739Z,32.67
2022-12-17T12:17:49.235Z,35.40
2022-12-17T12:20:46.821Z,35.35
2022-12-17T12:23:37.419Z,28.45
2022-12-17T12:26:27.505Z,30.80
2022-12-17T12:29:15.883Z,34.47
2022-12-17T12:32:20.245Z,32.92
2022-12-17T12:35:07.689Z,31.40
2022-12-17T12:37:54.282Z,32.60
2022-12-17T12:40:42.882Z,31.98
2022-12-17T12:43:33.212Z,34.17
2022-12-17T12:46:22.235Z,33.10
2022-12-17T12:49:23.969Z,34.42
2022-12-17T12:52:14.012Z,32.30
2022-12-17T12:55:10.931Z,34.03
2022-12-17T12:58:02.725Z,33.92
2022-12-17T13:00:54.427Z,34.78
2022-12-17T13:03:48.662Z,39.20
2022-12-17T13:06:43.603Z,33.42
2022-12-17T13:09:29.382Z,35.22
2022-12-17T13:12:28.863Z,34.97
2022-12-17T13:15:17.269Z,35.03
2022-12-17T13:17:47.764Z,33.25
2022-12-17T13:20:26.852Z,33.55
2022-12-17T13:23:15.819Z,34.65
2022-12-17T13:25:44.449Z,34.45
2022-12-17T13:28:29.450Z,36.58
2022-12-17T13:31:04.725Z,34.42
2022-12-17T13:33:38.840Z,36.88
2022-12-17T13:36:12.059Z,35.80
2022-12-17T13:38:46.937Z,37.15
2022-12-17T13:41:16.447Z,35.40
2022-12-17T13:43:46.565Z,35.50
2022-12-17T13:46:23.277Z,35.72
2022-12-17T13:48:56.477Z,35.55
2022-12-17T13:51:25.707Z,36.65
2022-12-17T13:53:57.662Z,36.22
2022-12-17T13:56:27.836Z,37.40
2022-12-17T13:58:58.054Z,35.95
2022-12-17T14:01:27.740Z,35.60
2022-12-17T14:04:06.498Z,38.80
2022-12-17T14:06:37.432Z,34.78
2022-12-17T14:09:07.267Z,34.88
2022-12-17T14:11:53.316Z,41.20
2022-12-17T14:14:33.588Z,36.03
2022-12-17T14:17:02.202Z,32.10
2022-12-17T14:19:30.865Z,38.97
2022-12-17T14:21:59.315Z,37.30
2022-12-17T14:24:29.666Z,39.17
2022-12-17T14:26:59.679Z,35.20
2022-12-17T14:29:29.751Z,34.63
2022-12-17T14:31:59.250Z,39.88
2022-12-17T14:34:27.747Z,36.08
2022-12-17T14:36:57.714Z,34.72
2022-12-17T14:39:29.140Z,38.38
2022-12-17T14:42:15.916Z,36.60
2022-12-17T14:44:52.556Z,42.67
2022-12-17T14:47:23.109Z,37.85
2022-12-17T14:50:01.523Z,40.15
2022-12-17T14:52:43.147Z,37.80
2022-12-17T14:55:32.188Z,35.22
2022-12-17T14:58:17.518Z,36.53
2022-12-17T15:00:48.247Z,35.47
2022-12-17T15:03:26.389Z,35.75
2022-12-17T15:05:58.452Z,36.67
2022-12-17T15:08:26.921Z,37.50
2022-12-17T15:10:57.012Z,34.95
2022-12-17T15:13:25.513Z,34.75
2022-12-17T15:15:54.060Z,38.38
2022-12-17T15:18:23.122Z,34.38
2022-12-17T15:20:52.249Z,35.67
2022-12-17T15:23:22.753Z,35.92
2022-12-17T15:25:52.589Z,36.47
2022-12-17T15:28:22.516Z,38.00
2022-12-17T15:30:51.270Z,34.15
2022-12-17T15:33:19.860Z,35.67
2022-12-17T15:35:48.342Z,40.45
2022-12-17T15:38:16.977Z,36.83
2022-12-17T15:40:45.463Z,35.10
2022-12-17T15:43:13.142Z,34.85
2022-12-17T15:45:44.599Z,33.50
2022-12-17T15:48:13.877Z,37.20
2022-12-17T15:50:42.641Z,40.65
2022-12-17T15:53:11.152Z,35.55
2022-12-17T15:55:39.863Z,37.42
2022-12-17T15:58:09.518Z,37.72
2022-12-17T16:00:38.820Z,38.00
2022-12-17T16:03:08.874Z,32.88
2022-12-17T16:05:37.624Z,33.60
2022-12-17T16:08:06.525Z,35.47
2022-12-17T16:10:35.122Z,32.17
2022-12-17T16:13:03.780Z,36.22
2022-12-17T16:15:32.360Z,36.78
2022-12-17T16:18:00.959Z,34.17
2022-12-17T16:20:30.874Z,38.08
2022-12-17T16:22:59.432Z,31.92
2022-12-17T16:25:28.005Z,33.03
2022-12-17T16:27:57.155Z,32.70
2022-12-17T16:30:26.097Z,33.35
2022-12-17T16:32:55.057Z,32.00
2022-12-17T16:35:24.947Z,37.38
2022-12-17T16:37:54.794Z,34.53
2022-12-17T16:40:23.347Z,35.63
2022-12-17T16:42:52.068Z,33.88
2022-12-17T16:45:20.625Z,35.17
2022-12-17T16:47:50.794Z,36.67
2022-12-17T16:50:19.411Z,37.28
2022-12-17T16:52:48.273Z,31.92
2022-12-17T16:55:18.279Z,37.92
2022-12-17T16:57:48.048Z,36.53
2022-12-17T17:00:17.204Z,31.92
2022-12-17T17:02:51.450Z,33.72
2022-12-17T17:05:21.892Z,34.35
2022-12-17T17:07:50.375Z,33.65
2022-12-17T17:10:20.669Z,33.92
2022-12-17T17:12:49.219Z,31.15
2022-12-17T17:15:17.768Z,32.05
2022-12-17T17:17:54.471Z,35.45
2022-12-17T17:20:24.782Z,35.03
2022-12-17T17:22:53.283Z,33.13
2022-12-17T17:25:23.103Z,33.83
2022-12-17T17:27:51.823Z,33.20
2022-12-17T17:30:20.400Z,34.38
2022-12-17T17:32:49.531Z,35.42
2022-12-17T17:35:18.276Z,32.00
2022-12-17T17:37:46.809Z,32.78
2022-12-17T17:40:15.693Z,33.28
2022-12-17T17:42:51.431Z,31.85
2022-12-17T17:45:20.316Z,31.65
2022-12-17T17:47:48.912Z,32.50
2022-12-17T17:50:17.647Z,32.75
2022-12-17T17:52:46.168Z,37.13
2022-12-17T17:55:14.926Z,28.83
2022-12-17T17:57:43.470Z,32.88
2022-12-17T18:00:14.997Z,32.92
2022-12-17T18:02:43.641Z,29.98
2022-12-17T18:05:12.296Z,32.75
2022-12-17T18:07:40.756Z,35.78
2022-12-17T18:10:11.027Z,31.15
2022-12-17T18:12:56.705Z,32.00
2022-12-17T18:15:26.630Z,34.17
2022-12-17T18:17:55.198Z,32.50
2022-12-17T18:20:23.801Z,34.92
2022-12-17T18:22:52.424Z,32.50
2022-12-17T18:25:21.867Z,33.33
2022-12-17T18:27:52.939Z,32.45
2022-12-17T18:30:21.609Z,34.03
2022-12-17T18:32:51.452Z,34.35
2022-12-17T18:35:20.526Z,32.85
2022-12-17T18:37:49.331Z,30.83
2022-12-17T18:40:18.005Z,31.52
2022-12-17T18:43:04.134Z,33.25
2022-12-17T18:45:32.882Z,34.70
2022-12-17T18:48:02.696Z,30.77
2022-12-17T18:50:31.267Z,31.27
2022-12-17T18:52:59.803Z,31.95
2022-12-17T18:55:28.243Z,31.60
2022-12-17T18:57:56.730Z,32.38
2022-12-17T19:00:25.415Z,33.45
2022-12-17T19:02:53.952Z,36.08
2022-12-17T19:05:24.044Z,28.33
2022-12-17T19:07:52.522Z,39.03
2022-12-17T19:10:20.980Z,31.77
2022-12-17T19:12:49.384Z,29.98
2022-12-17T19:15:18.174Z,33.72
2022-12-17T19:17:50.821Z,34.08
2022-12-17T19:20:20.145Z,31.70
2022-12-17T19:22:49.988Z,32.22
2022-12-17T19:25:18.901Z,33.30
2022-12-17T19:27:47.559Z,28.50
2022-12-17T19:30:16.184Z,30.95
2022-12-17T19:32:44.750Z,34.08
2022-12-17T19:35:13.224Z,28.00
2022-12-17T19:37:41.796Z,33.55
2022-12-17T19:40:13.869Z,29.98
2022-12-17T19:42:42.376Z,31.60
2022-12-17T19:45:11.937Z,31.95
2022-12-17T19:47:40.425Z,29.23
2022-12-17T19:50:09.657Z,27.63
2022-12-17T19:52:38.276Z,29.05
2022-12-17T19:55:07.638Z,29.25
2022-12-17T19:57:37.569Z,27.15
2022-12-17T20:00:07.229Z,29.85
2022-12-17T20:02:35.803Z,33.67
2022-12-17T20:05:04.602Z,26.52
2022-12-17T20:07:33.347Z,32.92
2022-12-17T20:10:01.770Z,29.55
2022-12-17T20:12:30.336Z,30.95
2022-12-17T20:15:00.165Z,36.22
2022-12-17T20:17:28.732Z,29.50
2022-12-17T20:19:57.927Z,34.53
2022-12-17T20:22:26.958Z,31.40
2022-12-17T20:24:56.045Z,50.45
2022-12-17T20:27:25.084Z,46.47
2022-12-17T20:29:54.488Z,42.25
2022-12-17T20:32:24.611Z,39.75
2022-12-17T20:34:53.118Z,43.03
2022-12-17T20:37:21.922Z,42.50
2022-12-17T20:39:50.396Z,41.67
2022-12-17T20:42:19.097Z,38.28
2022-12-17T20:44:53.250Z,40.38
2022-12-17T20:47:23.482Z,39.13
2022-12-17T20:49:51.957Z,40.00
2022-12-17T20:52:20.390Z,40.83
2022-12-17T20:54:49.420Z,39.22
2022-12-17T20:57:18.149Z,36.38
2022-12-17T20:59:46.641Z,38.80
2022-12-17T21:02:15.258Z,40.42
2022-12-17T21:04:45.454Z,39.42
2022-12-17T21:07:13.973Z,35.50
2022-12-17T21:09:42.416Z,35.90
2022-12-17T21:12:13.480Z,35.63
2022-12-17T21:14:41.950Z,35.72
2022-12-17T21:17:10.513Z,37.65
2022-12-17T21:19:39.112Z,34.20
2022-12-17T21:22:08.935Z,35.13
2022-12-17T21:24:39.231Z,34.08
2022-12-17T21:27:14.301Z,29.77
2022-12-17T21:29:43.503Z,28.55
2022-12-17T21:32:12.024Z,39.38
2022-12-17T21:34:40.882Z,33.42
2022-12-17T21:37:11.413Z,33.28
2022-12-17T21:39:39.976Z,30.40
2022-12-17T21:42:25.895Z,29.52
2022-12-17T21:44:54.668Z,32.90
2022-12-17T21:47:23.935Z,29.92
2022-12-17T21:49:52.433Z,28.52
2022-12-17T21:52:22.343Z,27.50
2022-12-17T21:54:50.772Z,30.70
2022-12-17T21:57:19.228Z,31.60
2022-12-17T21:59:48.125Z,30.67
2022-12-17T22:02:17.586Z,27.95
2022-12-17T22:04:46.415Z,30.70
2022-12-17T22:07:20.402Z,28.58
2022-12-17T22:10:19.988Z,29.27
2022-12-17T22:13:03.841Z,31.05
2022-12-17T22:15:34.457Z,29.30
2022-12-17T22:18:08.550Z,30.65
2022-12-17T22:20:37.133Z,27.95
2022-12-17T22:23:07.375Z,27.00
2022-12-17T22:25:39.399Z,26.60
2022-12-17T22:28:07.851Z,30.42
2022-12-17T22:30:53.889Z,27.00
2022-12-17T22:34:22.920Z,25.58
2022-12-17T22:38:27.039Z,31.45
2022-12-17T22:42:54.339Z,23.58
2022-12-17T22:44:42.957Z,24.80
2022-12-17T22:45:09.771Z,24.92
2022-12-17T22:47:40.148Z,26.38
2022-12-17T22:50:09.391Z,25.63
2022-12-17T22:52:38.575Z,26.73
2022-12-17T22:55:08.752Z,26.00
2022-12-17T22:57:38.926Z,25.45
2022-12-17T23:00:11.980Z,25.65
2022-12-17T23:02:40.843Z,26.55
2022-12-17T23:05:09.841Z,23.83
2022-12-17T23:07:38.334Z,26.45
2022-12-17T23:10:07.751Z,24.42
2022-12-17T23:12:55.144Z,26.33
2022-12-17T23:15:28.430Z,22.48
2022-12-17T23:17:58.232Z,26.65
2022-12-17T23:20:27.415Z,24.17
2022-12-17T23:22:55.987Z,23.23
2022-12-17T23:25:24.884Z,26.33
2022-12-17T23:27:53.941Z,28.92
2022-12-17T23:30:22.805Z,29.83
2022-12-17T23:32:52.724Z,25.65
2022-12-17T23:35:21.276Z,23.92
2022-12-17T23:37:50.338Z,22.65
2022-12-17T23:40:19.048Z,23.30
2022-12-17T23:42:47.464Z,22.58
2022-12-17T23:45:15.929Z,25.88
2022-12-17T23:47:44.507Z,24.17
2022-12-17T23:50:14.392Z,21.98
2022-12-17T23:52:42.831Z,21.75
2022-12-17T23:55:12.273Z,23.33
2022-12-17T23:57:40.713Z,24.27
